sensor_id;sensor_type;location;lat;lon;timestamp;pressure;altitude;pressure_sealevel;temperature;humidity
72370;BME280;60343;-32.030;115.880;2023-03-14T00:01:49;101735.91;;;25.67;49.03
72370;BME280;60343;-32.030;115.880;2023-03-14T00:04:29;101748.66;;;25.89;48.17
72370;BME280;60343;-32.030;115.880;2023-03-14T00:07:04;101735.53;;;26.13;46.59
72370;BME280;60343;-32.030;115.880;2023-03-14T00:09:38;101734.94;;;26.11;46.38
72370;BME280;60343;-32.030;115.880;2023-03-14T00:12:13;101739.75;;;26.21;46.86
72370;BME280;60343;-32.030;115.880;2023-03-14T00:14:58;101737.66;;;26.44;46.76
72370;BME280;60343;-32.030;115.880;2023-03-14T00:17:34;101738.13;;;26.85;45.64
72370;BME280;60343;-32.030;115.880;2023-03-14T00:20:15;101731.06;;;27.16;44.78
72370;BME280;60343;-32.030;115.880;2023-03-14T00:22:50;101728.84;;;27.45;43.79
72370;BME280;60343;-32.030;115.880;2023-03-14T00:25:25;101725.13;;;27.56;43.50
72370;BME280;60343;-32.030;115.880;2023-03-14T00:27:59;101728.88;;;27.82;43.41
72370;BME280;60343;-32.030;115.880;2023-03-14T00:30:34;101725.84;;;27.78;42.13
72370;BME280;60343;-32.030;115.880;2023-03-14T00:33:11;101734.25;;;27.61;42.49
72370;BME280;60343;-32.030;115.880;2023-03-14T00:35:53;101745.59;;;27.70;43.49
72370;BME280;60343;-32.030;115.880;2023-03-14T00:38:28;101744.91;;;27.90;42.47
72370;BME280;60343;-32.030;115.880;2023-03-14T00:41:05;101743.59;;;28.02;42.25
72370;BME280;60343;-32.030;115.880;2023-03-14T00:43:40;101744.34;;;28.25;41.57
72370;BME280;60343;-32.030;115.880;2023-03-14T00:46:14;101740.31;;;28.52;41.08
72370;BME280;60343;-32.030;115.880;2023-03-14T00:48:49;101720.88;;;28.74;40.48
72370;BME280;60343;-32.030;115.880;2023-03-14T00:51:29;101724.53;;;29.00;41.01
72370;BME280;60343;-32.030;115.880;2023-03-14T00:54:04;101717.69;;;29.38;39.51
72370;BME280;60343;-32.030;115.880;2023-03-14T00:56:38;101715.75;;;29.43;39.55
72370;BME280;60343;-32.030;115.880;2023-03-14T00:59:13;101721.25;;;29.79;38.00
72370;BME280;60343;-32.030;115.880;2023-03-14T01:01:47;101712.69;;;29.80;38.69
72370;BME280;60343;-32.030;115.880;2023-03-14T01:04:22;101718.78;;;30.03;39.25
72370;BME280;60343;-32.030;115.880;2023-03-14T01:07:03;101706.25;;;30.25;38.68
72370;BME280;60343;-32.030;115.880;2023-03-14T01:09:38;101708.13;;;30.40;37.23
72370;BME280;60343;-32.030;115.880;2023-03-14T01:12:12;101710.41;;;30.23;37.88
72370;BME280;60343;-32.030;115.880;2023-03-14T01:14:46;101706.75;;;30.48;38.45
72370;BME280;60343;-32.030;115.880;2023-03-14T01:17:21;101704.78;;;30.48;38.09
72370;BME280;60343;-32.030;115.880;2023-03-14T01:19:55;101710.53;;;30.67;38.18
72370;BME280;60343;-32.030;115.880;2023-03-14T01:22:38;101706.28;;;30.80;38.00
72370;BME280;60343;-32.030;115.880;2023-03-14T01:25:14;101713.22;;;30.82;37.46
72370;BME280;60343;-32.030;115.880;2023-03-14T01:27:49;101715.09;;;30.92;38.05
72370;BME280;60343;-32.030;115.880;2023-03-14T01:30:24;101719.88;;;30.76;37.80
72370;BME280;60343;-32.030;115.880;2023-03-14T01:32:58;101712.22;;;31.12;37.96
72370;BME280;60343;-32.030;115.880;2023-03-14T01:35:33;101702.41;;;31.25;37.20
72370;BME280;60343;-32.030;115.880;2023-03-14T01:38:13;101696.28;;;31.33;37.00
72370;BME280;60343;-32.030;115.880;2023-03-14T01:40:47;101690.03;;;31.17;37.65
72370;BME280;60343;-32.030;115.880;2023-03-14T01:43:22;101686.97;;;31.19;37.87
72370;BME280;60343;-32.030;115.880;2023-03-14T01:46:21;101681.13;;;30.81;38.26
72370;BME280;60343;-32.030;115.880;2023-03-14T01:49:03;101675.09;;;31.18;38.57
72370;BME280;60343;-32.030;115.880;2023-03-14T01:51:44;101677.13;;;31.36;37.41
72370;BME280;60343;-32.030;115.880;2023-03-14T01:54:27;101675.47;;;31.69;38.41
72370;BME280;60343;-32.030;115.880;2023-03-14T01:57:08;101682.25;;;31.82;36.36
72370;BME280;60343;-32.030;115.880;2023-03-14T01:59:46;101678.78;;;31.95;36.65
72370;BME280;60343;-32.030;115.880;2023-03-14T02:02:23;101679.56;;;32.01;36.13
72370;BME280;60343;-32.030;115.880;2023-03-14T02:05:00;101672.84;;;31.83;36.43
72370;BME280;60343;-32.030;115.880;2023-03-14T02:07:39;101677.31;;;31.79;36.47
72370;BME280;60343;-32.030;115.880;2023-03-14T02:10:22;101679.72;;;31.85;36.58
72370;BME280;60343;-32.030;115.880;2023-03-14T02:13:01;101664.53;;;32.30;36.48
72370;BME280;60343;-32.030;115.880;2023-03-14T02:15:37;101656.63;;;32.43;35.69
72370;BME280;60343;-32.030;115.880;2023-03-14T02:18:13;101658.41;;;32.52;36.10
72370;BME280;60343;-32.030;115.880;2023-03-14T02:20:52;101656.34;;;32.82;36.11
72370;BME280;60343;-32.030;115.880;2023-03-14T02:23:31;101645.78;;;32.84;35.31
72370;BME280;60343;-32.030;115.880;2023-03-14T02:26:18;101648.06;;;32.39;35.15
72370;BME280;60343;-32.030;115.880;2023-03-14T02:29:01;101639.66;;;32.68;35.61
72370;BME280;60343;-32.030;115.880;2023-03-14T02:31:36;101636.34;;;32.66;35.13
72370;BME280;60343;-32.030;115.880;2023-03-14T02:34:11;101637.53;;;32.78;35.69
72370;BME280;60343;-32.030;115.880;2023-03-14T02:36:46;101631.38;;;32.82;36.16
72370;BME280;60343;-32.030;115.880;2023-03-14T02:39:24;101626.94;;;32.99;35.19
72370;BME280;60343;-32.030;115.880;2023-03-14T02:42:02;101626.63;;;33.19;35.08
72370;BME280;60343;-32.030;115.880;2023-03-14T02:44:49;101626.13;;;33.31;35.09
72370;BME280;60343;-32.030;115.880;2023-03-14T02:47:29;101619.03;;;33.06;34.48
72370;BME280;60343;-32.030;115.880;2023-03-14T02:50:08;101621.53;;;32.09;35.96
72370;BME280;60343;-32.030;115.880;2023-03-14T02:52:43;101614.19;;;31.76;36.91
72370;BME280;60343;-32.030;115.880;2023-03-14T02:55:21;101612.22;;;32.00;36.63
72370;BME280;60343;-32.030;115.880;2023-03-14T02:57:56;101610.91;;;32.40;35.94
72370;BME280;60343;-32.030;115.880;2023-03-14T03:00:36;101609.84;;;32.55;35.00
72370;BME280;60343;-32.030;115.880;2023-03-14T03:03:11;101601.41;;;32.65;35.17
72370;BME280;60343;-32.030;115.880;2023-03-14T03:05:49;101599.91;;;32.54;35.45
72370;BME280;60343;-32.030;115.880;2023-03-14T03:08:25;101602.66;;;32.54;35.74
72370;BME280;60343;-32.030;115.880;2023-03-14T03:11:00;101594.09;;;32.50;35.41
72370;BME280;60343;-32.030;115.880;2023-03-14T03:13:34;101584.19;;;32.68;35.00
72370;BME280;60343;-32.030;115.880;2023-03-14T03:16:15;101581.97;;;32.84;34.78
72370;BME280;60343;-32.030;115.880;2023-03-14T03:18:49;101585.53;;;33.03;34.80
72370;BME280;60343;-32.030;115.880;2023-03-14T03:21:24;101586.47;;;33.12;34.53
72370;BME280;60343;-32.030;115.880;2023-03-14T03:23:59;101589.94;;;33.23;34.73
72370;BME280;60343;-32.030;115.880;2023-03-14T03:26:35;101586.13;;;33.00;34.18
72370;BME280;60343;-32.030;115.880;2023-03-14T03:29:09;101578.00;;;33.22;34.69
72370;BME280;60343;-32.030;115.880;2023-03-14T03:31:49;101580.16;;;33.25;33.64
72370;BME280;60343;-32.030;115.880;2023-03-14T03:34:24;101573.56;;;33.21;35.34
72370;BME280;60343;-32.030;115.880;2023-03-14T03:36:58;101565.47;;;33.06;34.99
72370;BME280;60343;-32.030;115.880;2023-03-14T03:39:33;101557.31;;;33.14;35.29
72370;BME280;60343;-32.030;115.880;2023-03-14T03:42:07;101555.88;;;32.85;34.50
72370;BME280;60343;-32.030;115.880;2023-03-14T03:44:42;101551.34;;;32.38;34.82
72370;BME280;60343;-32.030;115.880;2023-03-14T03:47:22;101547.00;;;32.31;36.29
72370;BME280;60343;-32.030;115.880;2023-03-14T03:49:57;101542.78;;;32.53;35.87
72370;BME280;60343;-32.030;115.880;2023-03-14T03:52:32;101535.53;;;32.38;34.74
72370;BME280;60343;-32.030;115.880;2023-03-14T03:55:06;101535.47;;;32.43;34.58
72370;BME280;60343;-32.030;115.880;2023-03-14T03:57:41;101525.69;;;32.83;34.04
72370;BME280;60343;-32.030;115.880;2023-03-14T04:00:16;101524.28;;;32.99;33.31
72370;BME280;60343;-32.030;115.880;2023-03-14T04:02:56;101518.72;;;32.99;33.99
72370;BME280;60343;-32.030;115.880;2023-03-14T04:05:30;101520.13;;;32.83;34.28
72370;BME280;60343;-32.030;115.880;2023-03-14T04:08:05;101511.28;;;33.27;33.58
72370;BME280;60343;-32.030;115.880;2023-03-14T04:10:40;101497.50;;;33.77;32.55
72370;BME280;60343;-32.030;115.880;2023-03-14T04:13:15;101504.06;;;33.81;32.35
72370;BME280;60343;-32.030;115.880;2023-03-14T04:15:49;101496.34;;;33.91;32.01
72370;BME280;60343;-32.030;115.880;2023-03-14T04:18:29;101487.50;;;33.89;32.00
72370;BME280;60343;-32.030;115.880;2023-03-14T04:21:07;101484.44;;;33.63;31.86
72370;BME280;60343;-32.030;115.880;2023-03-14T04:23:42;101494.72;;;33.77;32.91
72370;BME280;60343;-32.030;115.880;2023-03-14T04:26:16;101496.59;;;33.54;31.03
72370;BME280;60343;-32.030;115.880;2023-03-14T04:28:51;101487.13;;;33.55;32.09
72370;BME280;60343;-32.030;115.880;2023-03-14T04:31:26;101486.63;;;33.39;32.10
72370;BME280;60343;-32.030;115.880;2023-03-14T04:34:05;101484.97;;;33.38;33.52
72370;BME280;60343;-32.030;115.880;2023-03-14T04:36:40;101479.53;;;33.33;34.19
72370;BME280;60343;-32.030;115.880;2023-03-14T04:39:15;101480.75;;;33.27;34.74
72370;BME280;60343;-32.030;115.880;2023-03-14T04:41:49;101482.97;;;33.11;34.18
72370;BME280;60343;-32.030;115.880;2023-03-14T04:44:24;101475.75;;;32.97;33.19
72370;BME280;60343;-32.030;115.880;2023-03-14T04:46:58;101470.31;;;33.05;33.89
72370;BME280;60343;-32.030;115.880;2023-03-14T04:49:38;101466.72;;;32.91;34.97
72370;BME280;60343;-32.030;115.880;2023-03-14T04:52:13;101462.19;;;32.95;34.26
72370;BME280;60343;-32.030;115.880;2023-03-14T04:54:47;101465.44;;;32.70;36.25
72370;BME280;60343;-32.030;115.880;2023-03-14T04:57:22;101472.41;;;32.67;36.55
72370;BME280;60343;-32.030;115.880;2023-03-14T04:59:56;101467.09;;;32.85;35.00
72370;BME280;60343;-32.030;115.880;2023-03-14T05:02:33;101457.78;;;32.94;35.39
72370;BME280;60343;-32.030;115.880;2023-03-14T05:05:14;101462.34;;;32.71;34.56
72370;BME280;60343;-32.030;115.880;2023-03-14T05:07:49;101461.94;;;32.64;34.85
72370;BME280;60343;-32.030;115.880;2023-03-14T05:10:23;101465.44;;;32.70;35.77
72370;BME280;60343;-32.030;115.880;2023-03-14T05:12:58;101454.13;;;32.66;35.30
72370;BME280;60343;-32.030;115.880;2023-03-14T05:15:32;101446.78;;;32.89;34.27
72370;BME280;60343;-32.030;115.880;2023-03-14T05:18:07;101450.28;;;33.08;34.06
72370;BME280;60343;-32.030;115.880;2023-03-14T05:20:47;101455.66;;;33.18;34.37
72370;BME280;60343;-32.030;115.880;2023-03-14T05:23:24;101451.84;;;33.14;33.87
72370;BME280;60343;-32.030;115.880;2023-03-14T05:25:58;101456.25;;;33.02;34.19
72370;BME280;60343;-32.030;115.880;2023-03-14T05:28:33;101452.56;;;33.20;34.06
72370;BME280;60343;-32.030;115.880;2023-03-14T05:31:10;101456.59;;;33.28;33.87
72370;BME280;60343;-32.030;115.880;2023-03-14T05:33:45;101451.25;;;33.45;33.54
72370;BME280;60343;-32.030;115.880;2023-03-14T05:36:25;101459.97;;;33.79;33.82
72370;BME280;60343;-32.030;115.880;2023-03-14T05:38:59;101452.34;;;33.85;33.21
72370;BME280;60343;-32.030;115.880;2023-03-14T05:41:34;101447.28;;;34.23;32.08
72370;BME280;60343;-32.030;115.880;2023-03-14T05:44:09;101445.41;;;34.63;31.64
72370;BME280;60343;-32.030;115.880;2023-03-14T05:46:43;101444.53;;;34.31;32.01
72370;BME280;60343;-32.030;115.880;2023-03-14T05:49:18;101444.06;;;33.93;32.60
72370;BME280;60343;-32.030;115.880;2023-03-14T05:51:58;101449.66;;;33.66;33.26
72370;BME280;60343;-32.030;115.880;2023-03-14T05:54:33;101450.47;;;33.80;33.11
72370;BME280;60343;-32.030;115.880;2023-03-14T05:57:08;101453.38;;;33.61;32.99
72370;BME280;60343;-32.030;115.880;2023-03-14T05:59:42;101450.09;;;33.73;33.09
72370;BME280;60343;-32.030;115.880;2023-03-14T06:02:17;101449.34;;;33.81;32.45
72370;BME280;60343;-32.030;115.880;2023-03-14T06:04:51;101451.06;;;33.91;32.46
72370;BME280;60343;-32.030;115.880;2023-03-14T06:07:31;101444.84;;;34.08;32.62
72370;BME280;60343;-32.030;115.880;2023-03-14T06:10:07;101444.13;;;33.80;33.02
72370;BME280;60343;-32.030;115.880;2023-03-14T06:12:41;101454.53;;;33.96;33.32
72370;BME280;60343;-32.030;115.880;2023-03-14T06:15:16;101448.22;;;33.82;34.26
72370;BME280;60343;-32.030;115.880;2023-03-14T06:17:51;101450.78;;;34.15;31.84
72370;BME280;60343;-32.030;115.880;2023-03-14T06:20:25;101441.16;;;33.98;31.80
72370;BME280;60343;-32.030;115.880;2023-03-14T06:23:06;101435.66;;;34.07;31.28
72370;BME280;60343;-32.030;115.880;2023-03-14T06:25:41;101447.91;;;34.20;31.96
72370;BME280;60343;-32.030;115.880;2023-03-14T06:28:15;101448.75;;;34.20;31.16
72370;BME280;60343;-32.030;115.880;2023-03-14T06:30:50;101447.34;;;33.95;31.88
72370;BME280;60343;-32.030;115.880;2023-03-14T06:33:24;101450.91;;;33.74;31.84
72370;BME280;60343;-32.030;115.880;2023-03-14T06:35:59;101449.47;;;33.62;32.36
72370;BME280;60343;-32.030;115.880;2023-03-14T06:38:39;101438.44;;;33.71;32.55
72370;BME280;60343;-32.030;115.880;2023-03-14T06:41:13;101439.53;;;33.97;32.50
72370;BME280;60343;-32.030;115.880;2023-03-14T06:43:48;101440.19;;;34.39;31.59
72370;BME280;60343;-32.030;115.880;2023-03-14T06:46:22;101447.16;;;34.50;31.49
72370;BME280;60343;-32.030;115.880;2023-03-14T06:48:57;101449.41;;;34.48;30.70
72370;BME280;60343;-32.030;115.880;2023-03-14T06:51:32;101444.44;;;34.00;32.01
72370;BME280;60343;-32.030;115.880;2023-03-14T06:54:12;101444.00;;;34.07;32.04
72370;BME280;60343;-32.030;115.880;2023-03-14T06:56:47;101444.06;;;33.93;31.87
72370;BME280;60343;-32.030;115.880;2023-03-14T06:59:21;101448.41;;;33.86;31.85
72370;BME280;60343;-32.030;115.880;2023-03-14T07:01:55;101444.34;;;33.42;32.81
72370;BME280;60343;-32.030;115.880;2023-03-14T07:04:30;101442.69;;;33.55;32.64
72370;BME280;60343;-32.030;115.880;2023-03-14T07:07:05;101453.19;;;33.44;32.55
72370;BME280;60343;-32.030;115.880;2023-03-14T07:09:45;101450.91;;;33.46;32.83
72370;BME280;60343;-32.030;115.880;2023-03-14T07:12:20;101451.50;;;33.02;33.16
72370;BME280;60343;-32.030;115.880;2023-03-14T07:14:54;101454.28;;;33.02;32.66
72370;BME280;60343;-32.030;115.880;2023-03-14T07:17:29;101446.28;;;33.14;33.29
72370;BME280;60343;-32.030;115.880;2023-03-14T07:20:04;101451.91;;;32.82;33.55
72370;BME280;60343;-32.030;115.880;2023-03-14T07:22:39;101440.13;;;33.04;34.03
72370;BME280;60343;-32.030;115.880;2023-03-14T07:25:19;101454.31;;;33.16;33.35
72370;BME280;60343;-32.030;115.880;2023-03-14T07:27:53;101462.25;;;33.23;33.20
72370;BME280;60343;-32.030;115.880;2023-03-14T07:30:28;101467.34;;;33.15;33.42
72370;BME280;60343;-32.030;115.880;2023-03-14T07:33:03;101475.25;;;32.62;33.45
72370;BME280;60343;-32.030;115.880;2023-03-14T07:35:38;101461.25;;;32.21;34.30
72370;BME280;60343;-32.030;115.880;2023-03-14T07:38:13;101466.97;;;31.69;35.89
72370;BME280;60343;-32.030;115.880;2023-03-14T07:40:58;101461.94;;;31.28;36.07
72370;BME280;60343;-32.030;115.880;2023-03-14T07:43:34;101469.69;;;31.02;37.58
72370;BME280;60343;-32.030;115.880;2023-03-14T07:46:08;101471.09;;;30.95;36.79
72370;BME280;60343;-32.030;115.880;2023-03-14T07:48:43;101470.44;;;30.79;37.27
72370;BME280;60343;-32.030;115.880;2023-03-14T07:51:17;101469.00;;;30.87;36.86
72370;BME280;60343;-32.030;115.880;2023-03-14T07:53:52;101470.47;;;30.74;36.68
72370;BME280;60343;-32.030;115.880;2023-03-14T07:56:32;101473.19;;;30.50;37.32
72370;BME280;60343;-32.030;115.880;2023-03-14T07:59:06;101475.31;;;30.19;37.73
72370;BME280;60343;-32.030;115.880;2023-03-14T08:01:41;101481.03;;;29.94;38.92
72370;BME280;60343;-32.030;115.880;2023-03-14T08:04:16;101490.53;;;29.58;39.51
72370;BME280;60343;-32.030;115.880;2023-03-14T08:06:50;101484.97;;;29.68;38.99
72370;BME280;60343;-32.030;115.880;2023-03-14T08:09:25;101491.47;;;29.33;39.94
72370;BME280;60343;-32.030;115.880;2023-03-14T08:12:05;101494.22;;;29.33;40.33
72370;BME280;60343;-32.030;115.880;2023-03-14T08:14:40;101492.59;;;29.27;40.86
72370;BME280;60343;-32.030;115.880;2023-03-14T08:17:14;101483.19;;;29.28;40.47
72370;BME280;60343;-32.030;115.880;2023-03-14T08:19:49;101485.97;;;29.13;40.60
72370;BME280;60343;-32.030;115.880;2023-03-14T08:22:23;101485.47;;;28.95;41.28
72370;BME280;60343;-32.030;115.880;2023-03-14T08:24:58;101489.63;;;28.88;41.18
72370;BME280;60343;-32.030;115.880;2023-03-14T08:27:38;101493.19;;;28.53;42.29
72370;BME280;60343;-32.030;115.880;2023-03-14T08:30:14;101499.25;;;28.45;42.09
72370;BME280;60343;-32.030;115.880;2023-03-14T08:32:49;101495.91;;;28.28;42.83
72370;BME280;60343;-32.030;115.880;2023-03-14T08:35:24;101496.75;;;28.38;42.06
72370;BME280;60343;-32.030;115.880;2023-03-14T08:37:58;101506.94;;;28.38;42.13
72370;BME280;60343;-32.030;115.880;2023-03-14T08:40:32;101505.84;;;28.24;42.46
72370;BME280;60343;-32.030;115.880;2023-03-14T08:43:12;101515.19;;;28.23;42.59
72370;BME280;60343;-32.030;115.880;2023-03-14T08:45:47;101517.88;;;28.07;42.46
72370;BME280;60343;-32.030;115.880;2023-03-14T08:48:22;101515.91;;;27.93;43.30
72370;BME280;60343;-32.030;115.880;2023-03-14T08:50:56;101514.22;;;27.87;44.03
72370;BME280;60343;-32.030;115.880;2023-03-14T08:53:31;101520.53;;;27.77;44.14
72370;BME280;60343;-32.030;115.880;2023-03-14T08:56:06;101523.78;;;27.64;44.55
72370;BME280;60343;-32.030;115.880;2023-03-14T08:58:46;101519.06;;;27.54;44.78
72370;BME280;60343;-32.030;115.880;2023-03-14T09:01:21;101530.81;;;27.45;45.03
72370;BME280;60343;-32.030;115.880;2023-03-14T09:03:56;101527.16;;;27.29;45.46
72370;BME280;60343;-32.030;115.880;2023-03-14T09:06:30;101535.34;;;27.19;46.11
72370;BME280;60343;-32.030;115.880;2023-03-14T09:09:05;101534.44;;;27.08;46.35
72370;BME280;60343;-32.030;115.880;2023-03-14T09:11:40;101536.34;;;27.08;45.29
72370;BME280;60343;-32.030;115.880;2023-03-14T09:14:21;101536.78;;;26.89;45.25
72370;BME280;60343;-32.030;115.880;2023-03-14T09:16:55;101547.78;;;26.63;45.99
72370;BME280;60343;-32.030;115.880;2023-03-14T09:19:30;101546.31;;;26.50;45.62
72370;BME280;60343;-32.030;115.880;2023-03-14T09:22:04;101550.44;;;26.53;45.54
72370;BME280;60343;-32.030;115.880;2023-03-14T09:24:40;101550.91;;;26.44;45.69
72370;BME280;60343;-32.030;115.880;2023-03-14T09:27:15;101546.25;;;26.45;46.16
72370;BME280;60343;-32.030;115.880;2023-03-14T09:29:55;101560.31;;;26.54;46.09
72370;BME280;60343;-32.030;115.880;2023-03-14T09:32:30;101555.03;;;26.47;45.79
72370;BME280;60343;-32.030;115.880;2023-03-14T09:35:05;101560.53;;;26.47;45.68
72370;BME280;60343;-32.030;115.880;2023-03-14T09:37:40;101554.38;;;26.13;46.22
72370;BME280;60343;-32.030;115.880;2023-03-14T09:40:16;101559.63;;;26.15;46.12
72370;BME280;60343;-32.030;115.880;2023-03-14T09:42:52;101554.78;;;26.00;46.67
72370;BME280;60343;-32.030;115.880;2023-03-14T09:45:35;101558.25;;;25.90;46.40
72370;BME280;60343;-32.030;115.880;2023-03-14T09:48:15;101562.00;;;25.84;46.59
72370;BME280;60343;-32.030;115.880;2023-03-14T09:50:51;101562.81;;;25.63;47.40
72370;BME280;60343;-32.030;115.880;2023-03-14T09:53:28;101567.06;;;25.54;47.66
72370;BME280;60343;-32.030;115.880;2023-03-14T09:56:13;101566.31;;;25.58;47.68
72370;BME280;60343;-32.030;115.880;2023-03-14T09:58:52;101582.09;;;25.51;47.86
72370;BME280;60343;-32.030;115.880;2023-03-14T10:01:34;101576.53;;;25.46;48.03
72370;BME280;60343;-32.030;115.880;2023-03-14T10:04:14;101573.09;;;25.17;48.71
72370;BME280;60343;-32.030;115.880;2023-03-14T10:06:50;101569.06;;;25.25;48.85
72370;BME280;60343;-32.030;115.880;2023-03-14T10:09:25;101578.66;;;25.06;49.58
72370;BME280;60343;-32.030;115.880;2023-03-14T10:11:59;101573.34;;;24.99;49.71
72370;BME280;60343;-32.030;115.880;2023-03-14T10:14:36;101581.97;;;24.91;49.88
72370;BME280;60343;-32.030;115.880;2023-03-14T10:17:18;101571.28;;;24.90;50.24
72370;BME280;60343;-32.030;115.880;2023-03-14T10:19:54;101577.63;;;24.78;50.98
72370;BME280;60343;-32.030;115.880;2023-03-14T10:22:33;101584.50;;;24.64;51.63
72370;BME280;60343;-32.030;115.880;2023-03-14T10:25:26;101592.16;;;24.51;52.16
72370;BME280;60343;-32.030;115.880;2023-03-14T10:28:01;101588.91;;;24.37;52.57
72370;BME280;60343;-32.030;115.880;2023-03-14T10:30:40;101581.19;;;24.34;53.00
72370;BME280;60343;-32.030;115.880;2023-03-14T10:33:28;101596.63;;;24.40;53.45
72370;BME280;60343;-32.030;115.880;2023-03-14T10:36:04;101594.78;;;24.29;53.86
72370;BME280;60343;-32.030;115.880;2023-03-14T10:38:40;101588.94;;;24.25;54.11
72370;BME280;60343;-32.030;115.880;2023-03-14T10:41:18;101601.00;;;24.13;54.30
72370;BME280;60343;-32.030;115.880;2023-03-14T10:43:56;101600.06;;;24.19;54.31
72370;BME280;60343;-32.030;115.880;2023-03-14T10:46:33;101596.38;;;24.02;54.75
72370;BME280;60343;-32.030;115.880;2023-03-14T10:49:26;101598.97;;;24.08;54.79
72370;BME280;60343;-32.030;115.880;2023-03-14T10:52:22;101596.75;;;23.93;55.02
72370;BME280;60343;-32.030;115.880;2023-03-14T10:55:09;101598.78;;;23.98;54.74
72370;BME280;60343;-32.030;115.880;2023-03-14T10:57:44;101601.97;;;23.95;54.55
72370;BME280;60343;-32.030;115.880;2023-03-14T11:00:21;101609.00;;;23.91;54.94
72370;BME280;60343;-32.030;115.880;2023-03-14T11:03:08;101620.81;;;23.68;55.76
72370;BME280;60343;-32.030;115.880;2023-03-14T11:05:57;101621.78;;;23.62;56.14
72370;BME280;60343;-32.030;115.880;2023-03-14T11:08:40;101627.00;;;23.52;56.34
72370;BME280;60343;-32.030;115.880;2023-03-14T11:14:35;101631.13;;;23.31;57.27
72370;BME280;60343;-32.030;115.880;2023-03-14T11:17:18;101634.47;;;23.33;57.00
72370;BME280;60343;-32.030;115.880;2023-03-14T11:20:09;101646.31;;;23.27;57.53
72370;BME280;60343;-32.030;115.880;2023-03-14T11:22:59;101655.50;;;23.33;57.41
72370;BME280;60343;-32.030;115.880;2023-03-14T11:25:41;101654.50;;;23.16;57.79
72370;BME280;60343;-32.030;115.880;2023-03-14T11:28:21;101659.84;;;23.10;58.04
72370;BME280;60343;-32.030;115.880;2023-03-14T11:30:59;101660.06;;;22.97;58.53
72370;BME280;60343;-32.030;115.880;2023-03-14T11:33:43;101662.31;;;23.00;58.70
72370;BME280;60343;-32.030;115.880;2023-03-14T11:36:24;101663.84;;;22.96;58.72
72370;BME280;60343;-32.030;115.880;2023-03-14T11:39:11;101661.38;;;23.06;58.79
72370;BME280;60343;-32.030;115.880;2023-03-14T11:41:49;101659.69;;;23.05;58.75
72370;BME280;60343;-32.030;115.880;2023-03-14T11:44:27;101670.31;;;23.14;58.88
72370;BME280;60343;-32.030;115.880;2023-03-14T11:47:06;101672.50;;;22.93;59.60
72370;BME280;60343;-32.030;115.880;2023-03-14T11:49:45;101675.81;;;22.95;60.11
72370;BME280;60343;-32.030;115.880;2023-03-14T11:52:25;101671.41;;;22.83;60.61
72370;BME280;60343;-32.030;115.880;2023-03-14T11:55:11;101671.66;;;22.63;61.18
72370;BME280;60343;-32.030;115.880;2023-03-14T11:57:48;101675.66;;;22.60;61.66
72370;BME280;60343;-32.030;115.880;2023-03-14T12:00:25;101678.09;;;22.50;61.85
72370;BME280;60343;-32.030;115.880;2023-03-14T12:03:02;101695.41;;;22.44;62.25
72370;BME280;60343;-32.030;115.880;2023-03-14T12:05:56;101690.31;;;22.30;62.83
72370;BME280;60343;-32.030;115.880;2023-03-14T12:08:52;101697.69;;;22.47;62.82
72370;BME280;60343;-32.030;115.880;2023-03-14T12:11:42;101689.53;;;22.59;62.58
72370;BME280;60343;-32.030;115.880;2023-03-14T12:14:25;101697.13;;;22.57;62.71
72370;BME280;60343;-32.030;115.880;2023-03-14T12:17:05;101700.63;;;22.46;63.49
72370;BME280;60343;-32.030;115.880;2023-03-14T12:19:40;101707.97;;;22.45;63.69
72370;BME280;60343;-32.030;115.880;2023-03-14T12:22:28;101717.53;;;22.54;63.83
72370;BME280;60343;-32.030;115.880;2023-03-14T12:25:13;101722.00;;;22.49;63.97
72370;BME280;60343;-32.030;115.880;2023-03-14T12:28:30;101718.16;;;22.38;64.40
72370;BME280;60343;-32.030;115.880;2023-03-14T12:37:04;101720.63;;;22.40;65.60
72370;BME280;60343;-32.030;115.880;2023-03-14T12:39:46;101720.75;;;22.33;65.59
72370;BME280;60343;-32.030;115.880;2023-03-14T12:42:37;101722.47;;;22.28;66.06
72370;BME280;60343;-32.030;115.880;2023-03-14T12:45:24;101723.31;;;22.28;66.22
72370;BME280;60343;-32.030;115.880;2023-03-14T12:48:09;101729.41;;;22.23;66.99
72370;BME280;60343;-32.030;115.880;2023-03-14T12:50:45;101726.47;;;22.07;67.20
72370;BME280;60343;-32.030;115.880;2023-03-14T12:56:28;101734.56;;;22.13;67.92
72370;BME280;60343;-32.030;115.880;2023-03-14T12:59:30;101737.50;;;21.94;67.99
72370;BME280;60343;-32.030;115.880;2023-03-14T13:02:22;101734.50;;;22.02;68.26
72370;BME280;60343;-32.030;115.880;2023-03-14T13:05:08;101736.41;;;22.01;68.15
72370;BME280;60343;-32.030;115.880;2023-03-14T13:08:10;101746.84;;;22.04;68.70
72370;BME280;60343;-32.030;115.880;2023-03-14T13:10:48;101746.72;;;21.93;68.71
72370;BME280;60343;-32.030;115.880;2023-03-14T13:13:24;101746.06;;;21.72;69.27
72370;BME280;60343;-32.030;115.880;2023-03-14T13:16:01;101747.28;;;21.76;69.83
72370;BME280;60343;-32.030;115.880;2023-03-14T13:18:44;101750.22;;;21.75;69.87
72370;BME280;60343;-32.030;115.880;2023-03-14T13:21:21;101753.50;;;21.59;70.42
72370;BME280;60343;-32.030;115.880;2023-03-14T13:23:58;101747.06;;;21.53;70.88
72370;BME280;60343;-32.030;115.880;2023-03-14T13:26:37;101748.34;;;21.51;70.67